KLOZ/LOZ METAR and TAF weather

Enter ICAO airport designator
Station Type Date Time Source
KLOZ METAR 2019/10/23 12:53 UTC NOAA

KLOZ 231253Z AUTO 00000KT 10SM CLR 05/03 A3015 RMK AO2 SLP212 T00500033


Station Type Date Time Source
KLOZ Decoded METAR 2019/10/23 12:53 UTC NOAA

LONDON-CORBIN AIRPORT, KY, United States (KLOZ) 37-05N 084-04W 362M
Oct 23, 2019 - 08:53 AM EDT / 2019.10.23 1253 UTC
Wind: Calm:0
Visibility: 10 mile(s):0
Sky conditions: clear
Temperature: 41.0 F (5.0 C)
Dew Point: 37.9 F (3.3 C)
Relative Humidity: 88%
Pressure (altimeter): 30.15 in. Hg (1020 hPa)
ob: KLOZ 231253Z AUTO 00000KT 10SM CLR 05/03 A3015 RMK AO2 SLP212 T00500033
cycle: 13

Station Type Date Time Source
KLOZ TAF 2019/10/23 12:33 UTC NOAA

TAF KLOZ 231129Z 2312/2412 23005KT P6SM SKC
FM231600 23008G15KT P6SM SKC
FM232300 VRB05KT P6SM SKC

Example: see airport list